Time;durP1;ratioP1;P1;durP2;ratioP2;P2;SDS_P1;SDS_P2;PMS_P1;PMS_P2;Temp;Humidity;BMP_temperature;BMP_pressure;BME280_temperature;BME280_humidity;BME280_pressure;Samples;Min_cycle;Max_cycle;Signal;HPM_P1;HPM_P2
2021/09/03 04:17:00;;;;;;;12.82;9.85;;;;;;;9.63;100.00;99226.25;5221302;23;20404;-72
2021/09/03 04:19:26;;;;;;;16.27;9.32;;;;;;;9.63;100.00;99231.41;4973355;28;20026;-72
2021/09/03 04:21:51;;;;;;;14.27;9.55;;;;;;;9.61;100.00;99227.97;4973272;28;20423;-74
2021/09/03 04:24:16;;;;;;;12.45;10.25;;;;;;;9.61;100.00;99233.16;4973422;28;20118;-73
2021/09/03 04:26:43;;;;;;;12.52;8.93;;;;;;;9.60;100.00;99231.44;4972931;28;20500;-74
2021/09/03 04:29:08;;;;;;;13.77;8.70;;;;;;;9.54;100.00;99222.00;4973820;28;20027;-72
2021/09/03 04:31:33;;;;;;;12.15;9.15;;;;;;;9.78;100.00;99228.72;4972500;28;20023;-72
2021/09/03 04:33:59;;;;;;;14.07;8.85;;;;;;;9.70;100.00;99222.72;4945895;29;20077;-74
2021/09/03 04:36:24;;;;;;;17.35;9.45;;;;;;;9.68;100.00;99229.66;4935420;28;20469;-74
2021/09/03 04:38:49;;;;;;;14.70;9.70;;;;;;;9.63;100.00;99232.28;4934706;29;20028;-75
2021/09/03 04:41:15;;;;;;;11.30;8.82;;;;;;;9.58;100.00;99234.03;4934715;29;20486;-74
2021/09/03 04:43:40;;;;;;;13.15;8.90;;;;;;;9.59;100.00;99229.72;4934820;29;20090;-72
2021/09/03 04:46:05;;;;;;;15.00;8.70;;;;;;;9.62;100.00;99246.09;4934736;29;20481;-72
2021/09/03 04:48:31;;;;;;;13.57;9.07;;;;;;;9.67;100.00;99251.19;4934713;29;20020;-74
2021/09/03 04:50:56;;;;;;;12.40;8.30;;;;;;;9.72;100.00;99247.75;4956460;28;20479;-72
2021/09/03 04:53:21;;;;;;;16.10;8.90;;;;;;;9.70;100.00;99248.59;4972933;28;20029;-73
2021/09/03 04:55:47;;;;;;;11.93;8.90;;;;;;;9.77;100.00;99252.88;4973458;28;20031;-74
2021/09/03 04:58:12;;;;;;;12.82;9.30;;;;;;;9.75;100.00;99252.03;4971818;28;20484;-72
2021/09/03 05:00:37;;;;;;;18.17;9.38;;;;;;;9.69;100.00;99259.84;4973079;28;20031;-72
2021/09/03 05:03:03;;;;;;;10.82;8.40;;;;;;;9.69;100.00;99260.69;4952675;28;20023;-72
2021/09/03 05:05:28;;;;;;;14.00;8.95;;;;;;;9.94;100.00;99263.97;4942380;29;20027;-72
2021/09/03 05:07:54;;;;;;;11.35;8.68;;;;;;;9.94;99.59;99253.59;4934430;29;20039;-72
2021/09/03 05:10:19;;;;;;;11.38;7.80;;;;;;;10.02;99.16;99251.81;4934712;29;20095;-73
2021/09/03 05:12:45;;;;;;;10.82;7.75;;;;;;;9.83;99.14;99250.25;4934284;29;20114;-72
2021/09/03 05:15:16;;;;;;;12.82;8.57;;;;;;;9.84;98.52;99254.53;4934367;29;20035;-72
2021/09/03 05:17:47;;;;;;;14.15;8.20;;;;;;;9.81;99.05;99251.97;4934183;29;20043;-72
2021/09/03 05:20:13;;;;;;;11.35;8.18;;;;;;;9.97;100.00;99253.59;4945491;28;20078;-72
2021/09/03 05:22:38;;;;;;;14.15;9.30;;;;;;;9.92;98.96;99255.34;4972724;28;20065;-72
2021/09/03 05:25:04;;;;;;;12.43;8.88;;;;;;;10.03;99.10;99257.84;4972825;28;20031;-72
2021/09/03 05:27:30;;;;;;;12.75;7.75;;;;;;;10.10;98.53;99253.47;4972764;28;20035;-72
2021/09/03 05:29:55;;;;;;;17.20;8.13;;;;;;;10.03;97.61;99248.34;4972592;28;20027;-72
2021/09/03 05:32:20;;;;;;;11.13;8.30;;;;;;;10.14;97.25;99257.75;4963694;28;20023;-72
2021/09/03 05:34:46;;;;;;;14.27;8.43;;;;;;;9.92;97.53;99252.78;4941986;29;20015;-72
2021/09/03 05:37:11;;;;;;;11.10;7.97;;;;;;;9.97;97.78;99258.75;4934808;29;20400;-73
2021/09/03 05:39:37;;;;;;;14.50;7.95;;;;;;;10.04;97.62;99256.97;4937825;29;20533;-72
2021/09/03 05:42:02;;;;;;;12.57;7.90;;;;;;;10.31;97.33;99258.50;4937877;29;20516;-72
2021/09/03 05:44:28;;;;;;;12.20;8.10;;;;;;;10.19;95.91;99261.16;4937935;29;20024;-73
2021/09/03 05:46:53;;;;;;;10.93;7.85;;;;;;;10.38;96.07;99247.22;4937726;29;20533;-73
2021/09/03 05:49:18;;;;;;;13.20;8.00;;;;;;;10.37;95.79;99252.41;4937751;29;20023;-72
2021/09/03 05:51:44;;;;;;;12.88;8.07;;;;;;;10.43;96.01;99250.59;4972971;28;20026;-72
2021/09/03 05:54:10;;;;;;;10.68;8.20;;;;;;;10.58;95.67;99251.31;4976327;28;20492;-74
2021/09/03 05:56:36;;;;;;;13.07;8.25;;;;;;;10.67;95.64;99246.06;4976014;28;20029;-73
2021/09/03 05:59:05;;;;;;;11.88;8.02;;;;;;;10.98;94.35;99246.59;4976106;28;20407;-74
2021/09/03 06:01:31;;;;;;;14.15;8.30;;;;;;;11.24;93.59;99249.69;4975630;28;20113;-74
2021/09/03 06:03:57;;;;;;;11.90;7.95;;;;;;;11.28;93.48;99255.69;4948624;28;20448;-73
2021/09/03 06:06:22;;;;;;;19.83;9.80;;;;;;;11.27;93.28;99254.84;4938348;28;20028;-74
2021/09/03 06:08:49;;;;;;;49.88;17.00;;;;;;;11.59;92.81;99251.78;4937527;29;20392;-74
2021/09/03 06:11:14;;;;;;;85.70;25.23;;;;;;;11.62;91.53;99247.44;4937188;29;20038;-73
2021/09/03 06:13:40;;;;;;;83.10;24.83;;;;;;;11.92;91.60;99244.41;4937324;29;20032;-74
2021/09/03 06:16:05;;;;;;;15.85;8.45;;;;;;;12.24;90.69;99243.03;4936942;29;20027;-73
2021/09/03 06:18:30;;;;;;;13.40;8.65;;;;;;;12.55;89.86;99238.97;4937179;29;20028;-73
2021/09/03 06:20:56;;;;;;;14.45;7.30;;;;;;;12.84;88.28;99229.78;4959739;28;20395;-73
2021/09/03 06:23:21;;;;;;;15.27;7.93;;;;;;;13.05;85.81;99229.34;4975464;28;20387;-73
2021/09/03 06:25:46;;;;;;;11.57;7.95;;;;;;;12.94;87.56;99226.09;4975642;28;20110;-74
2021/09/03 06:28:12;;;;;;;12.95;8.48;;;;;;;13.21;86.27;99234.22;4975531;28;20019;-75
2021/09/03 06:30:37;;;;;;;12.13;7.68;;;;;;;13.01;86.10;99222.50;4974402;28;20472;-73
2021/09/03 06:33:02;;;;;;;8.88;7.13;;;;;;;12.91;86.75;99228.78;4955104;28;20070;-73
2021/09/03 06:35:27;;;;;;;10.55;7.57;;;;;;;13.29;86.07;99224.53;4944620;29;20023;-73
2021/09/03 06:37:53;;;;;;;12.68;7.93;;;;;;;13.76;82.66;99231.25;4936668;29;20036;-73
2021/09/03 06:40:18;;;;;;;11.95;8.52;;;;;;;14.20;81.32;99226.72;4937001;29;20032;-74
2021/09/03 06:42:44;;;;;;;10.98;8.60;;;;;;;14.52;80.51;99227.66;4936432;29;20059;-73
2021/09/03 06:45:10;;;;;;;16.52;7.68;;;;;;;14.78;78.60;99224.34;4936573;29;20163;-74
2021/09/03 06:47:36;;;;;;;14.20;7.25;;;;;;;15.55;75.59;99222.94;4936513;29;20024;-73
2021/09/03 06:50:05;;;;;;;10.48;7.20;;;;;;;14.91;76.35;99226.56;4944648;28;20030;-74
2021/09/03 06:52:30;;;;;;;9.02;6.70;;;;;;;15.51;74.37;99227.41;4974802;28;20109;-74
2021/09/03 06:54:57;;;;;;;12.10;6.57;;;;;;;17.57;68.11;99214.13;4974871;28;20485;-73
2021/09/03 06:57:22;;;;;;;10.10;6.07;;;;;;;19.14;61.19;99216.22;4974856;28;20023;-73
2021/09/03 06:59:48;;;;;;;12.95;6.47;;;;;;;20.56;56.38;99211.13;4974796;28;20045;-75
2021/09/03 07:02:15;;;;;;;8.93;5.88;;;;;;;20.69;55.93;99218.28;4967651;28;20483;-73
2021/09/03 07:04:40;;;;;;;8.68;5.60;;;;;;;21.64;52.02;99217.59;4943967;29;20024;-73
2021/09/03 07:07:05;;;;;;;15.65;5.60;;;;;;;22.93;48.92;99221.50;4936231;29;20035;-73
2021/09/03 07:09:31;;;;;;;12.32;5.68;;;;;;;22.93;47.84;99217.06;4936167;29;20115;-75
2021/09/03 07:11:56;;;;;;;15.20;5.43;;;;;;;23.60;46.82;99223.41;4936256;29;20059;-74
2021/09/03 07:14:21;;;;;;;7.70;5.20;;;;;;;23.92;46.16;99222.28;4936143;29;20034;-75
2021/09/03 07:16:47;;;;;;;9.38;5.82;;;;;;;22.50;49.74;99224.06;4935975;29;20027;-73
2021/09/03 07:19:12;;;;;;;9.27;5.47;;;;;;;23.95;46.10;99230.03;4935749;29;20023;-74
2021/09/03 07:21:37;;;;;;;9.77;6.05;;;;;;;20.68;52.84;99235.03;4969648;28;20054;-73
2021/09/03 07:24:03;;;;;;;12.13;5.68;;;;;;;21.24;52.09;99225.06;4974507;28;20109;-73
2021/09/03 07:26:30;;;;;;;8.18;5.82;;;;;;;22.21;50.97;99223.16;4974300;28;20066;-74
2021/09/03 07:28:55;;;;;;;7.80;5.18;;;;;;;23.37;47.30;99220.53;4974192;28;20369;-75
2021/09/03 07:31:21;;;;;;;8.18;5.28;;;;;;;24.10;45.48;99232.50;4974170;28;20027;-73
2021/09/03 07:33:47;;;;;;;8.05;4.90;;;;;;;24.95;43.65;99229.44;4947708;28;20117;-75
2021/09/03 07:36:12;;;;;;;7.38;5.10;;;;;;;25.29;43.31;99220.84;4938402;28;20023;-74
2021/09/03 07:38:38;;;;;;;9.15;4.85;;;;;;;26.89;39.80;99223.09;4935583;29;20047;-75
2021/09/03 07:41:03;;;;;;;6.50;5.10;;;;;;;27.59;37.81;99221.97;4935455;29;20024;-74
2021/09/03 07:43:29;;;;;;;11.32;5.53;;;;;;;26.94;39.22;99220.91;4935492;29;20079;-74
2021/09/03 07:45:56;;;;;;;8.88;5.60;;;;;;;26.46;40.02;99212.28;4935504;29;20083;-74
2021/09/03 07:48:22;;;;;;;10.02;5.30;;;;;;;27.99;37.39;99213.41;4935492;29;20023;-74
2021/09/03 07:50:47;;;;;;;9.05;5.28;;;;;;;27.67;39.16;99204.41;4955915;28;20031;-74
2021/09/03 07:53:13;;;;;;;8.50;4.65;;;;;;;27.07;40.15;99204.81;4973914;28;20074;-74
2021/09/03 07:55:38;;;;;;;5.15;4.63;;;;;;;26.28;40.70;99204.69;4973933;28;20026;-74
2021/09/03 07:58:05;;;;;;;7.70;4.75;;;;;;;28.34;37.50;99208.69;4973837;28;20026;-75
2021/09/03 08:00:31;;;;;;;6.97;4.40;;;;;;;29.92;35.05;99202.84;4973022;28;20062;-73
2021/09/03 08:02:56;;;;;;;8.32;4.50;;;;;;;31.55;31.91;99209.78;4955598;28;20055;-74
2021/09/03 08:05:22;;;;;;;6.88;4.90;;;;;;;30.73;31.55;99206.03;4943008;29;20091;-74
2021/09/03 08:07:48;;;;;;;6.07;4.53;;;;;;;31.11;30.95;99206.88;4935389;29;20078;-74
2021/09/03 08:10:15;;;;;;;7.40;5.00;;;;;;;28.20;35.52;99211.63;4935185;29;20028;-75
2021/09/03 08:12:41;;;;;;;8.85;4.75;;;;;;;29.98;32.84;99199.63;4935072;29;20023;-75
2021/09/03 08:15:10;;;;;;;7.22;5.22;;;;;;;29.51;33.18;99193.22;4935192;29;20167;-75
2021/09/03 08:17:35;;;;;;;7.43;4.13;;;;;;;28.81;33.83;99198.41;4935022;29;20118;-75
2021/09/03 08:20:03;;;;;;;5.72;4.72;;;;;;;29.37;32.91;99197.94;4942002;28;20162;-75
2021/09/03 08:22:29;;;;;;;9.63;4.28;;;;;;;31.36;31.47;99184.78;4973352;28;20479;-73
2021/09/03 08:24:54;;;;;;;7.50;4.95;;;;;;;29.31;33.14;99198.50;4973623;28;20110;-74
2021/09/03 08:27:20;;;;;;;5.65;4.68;;;;;;;29.79;33.28;99203.13;4973409;28;20507;-75
2021/09/03 08:29:46;;;;;;;5.82;4.65;;;;;;;30.81;31.40;99195.47;4973341;28;20383;-74
2021/09/03 08:32:12;;;;;;;8.30;4.50;;;;;;;31.04;30.81;99185.19;4967331;28;20054;-73
2021/09/03 08:34:38;;;;;;;6.10;4.38;;;;;;;29.34;33.91;99192.03;4942842;29;20023;-74
2021/09/03 08:37:03;;;;;;;6.53;4.78;;;;;;;29.98;32.97;99190.72;4934756;29;20035;-75
2021/09/03 08:39:29;;;;;;;6.43;4.32;;;;;;;31.55;30.67;99188.34;4934882;29;20027;-75
2021/09/03 08:41:55;;;;;;;8.40;4.50;;;;;;;32.48;29.22;99187.88;4934792;29;20034;-75
2021/09/03 08:44:20;;;;;;;8.02;4.22;;;;;;;32.65;28.78;99194.19;4934931;29;20054;-74
2021/09/03 08:46:47;;;;;;;7.97;4.05;;;;;;;32.99;28.86;99191.56;4934493;29;20031;-74
2021/09/03 08:49:12;;;;;;;7.03;4.57;;;;;;;31.16;30.04;99199.25;4934885;29;20074;-75
2021/09/03 08:51:38;;;;;;;5.25;4.35;;;;;;;29.08;32.46;99199.69;4968613;28;20499;-75
2021/09/03 08:54:04;;;;;;;8.35;4.20;;;;;;;30.05;31.84;99197.22;4973065;28;20563;-75
2021/09/03 08:56:29;;;;;;;5.47;4.50;;;;;;;30.23;32.26;99200.91;4942521;28;20034;-74
2021/09/03 08:58:55;;;;;;;5.28;4.47;;;;;;;28.79;33.82;99197.72;4943692;29;20031;-74
2021/09/03 09:01:20;;;;;;;8.90;4.65;;;;;;;28.62;34.67;99203.63;4944791;28;20031;-73
2021/09/03 09:03:48;;;;;;;7.03;4.38;;;;;;;31.53;29.85;99195.69;4944464;29;20484;-73
2021/09/03 09:06:25;;;;;;;7.63;4.50;;;;;;;30.04;31.92;99195.53;4944856;28;20033;-74
2021/09/03 09:09:06;;;;;;;4.30;3.90;;;;;;;29.68;31.74;99203.22;4943720;28;20023;-74
2021/09/03 09:11:32;;;;;;;9.38;5.32;;;;;;;31.12;30.80;99197.84;4945869;28;20046;-74
2021/09/03 09:14:00;;;;;;;7.75;5.47;;;;;;;31.87;29.58;99196.75;4947342;28;20641;-74
2021/09/03 09:16:30;;;;;;;4.75;4.00;;;;;;;31.93;30.12;99192.59;4948398;29;20031;-74
2021/09/03 09:18:58;;;;;;;4.60;4.20;;;;;;;31.03;30.00;99193.38;4948672;29;20738;-73
2021/09/03 09:21:28;;;;;;;5.63;4.57;;;;;;;31.99;29.05;99195.50;4948756;28;20035;-73
2021/09/03 09:24:11;;;;;;;6.13;5.00;;;;;;;31.67;29.17;99189.78;4948718;28;20027;-73
2021/09/03 09:26:40;;;;;;;5.18;4.00;;;;;;;32.87;27.87;99191.97;4948864;29;20037;-74
2021/09/03 09:29:37;;;;;;;5.78;4.20;;;;;;;32.42;28.61;99182.31;4948458;28;20460;-73
2021/09/03 09:32:04;;;;;;;6.03;4.10;;;;;;;30.30;31.42;99175.25;4944245;28;20047;-73
2021/09/03 09:34:36;;;;;;;5.57;4.45;;;;;;;31.28;30.34;99168.63;4947977;28;20065;-74
2021/09/03 09:37:08;;;;;;;12.27;9.45;;;;;;;31.84;28.87;99167.56;4948695;28;20031;-73
2021/09/03 09:40:07;;;;;;;11.85;5.00;;;;;;;32.22;29.19;99165.53;4938618;28;20032;-74
2021/09/03 09:42:32;;;;;;;4.57;4.13;;;;;;;32.32;29.21;99158.22;4909270;28;20630;-74
2021/09/03 09:45:02;;;;;;;5.35;4.32;;;;;;;32.00;29.41;99156.13;4925891;28;20042;-73
2021/09/03 09:47:28;;;;;;;6.45;4.35;;;;;;;32.16;28.97;99155.44;4923171;28;20149;-73
2021/09/03 09:49:54;;;;;;;5.43;4.15;;;;;;;30.52;30.26;99151.88;4915900;28;20023;-74
2021/09/03 09:52:34;;;;;;;6.88;4.53;;;;;;;32.15;29.04;99159.94;4918686;28;20035;-73
2021/09/03 09:54:59;;;;;;;6.53;4.53;;;;;;;33.73;26.19;99151.50;4920393;28;20491;-74
2021/09/03 09:57:28;;;;;;;6.57;4.35;;;;;;;32.71;27.85;99149.78;4917668;28;20042;-74
2021/09/03 09:59:54;;;;;;;6.20;4.70;;;;;;;30.42;30.61;99147.38;4913287;28;20039;-73
2021/09/03 10:02:20;;;;;;;5.07;3.90;;;;;;;32.69;27.61;99141.91;4903651;28;20057;-74
2021/09/03 10:04:46;;;;;;;5.20;4.18;;;;;;;33.84;27.37;99142.25;4904855;28;20031;-72
2021/09/03 10:07:11;;;;;;;8.32;4.03;;;;;;;32.58;27.16;99144.00;4904918;28;20412;-73
2021/09/03 10:09:37;;;;;;;6.05;4.45;;;;;;;32.99;28.08;99137.03;4913364;28;20031;-73
2021/09/03 10:12:03;;;;;;;3.95;3.63;;;;;;;31.02;29.61;99139.00;4922022;28;20034;-73
2021/09/03 10:14:34;;;;;;;5.45;4.18;;;;;;;31.95;29.67;99129.78;4913287;28;20514;-74
2021/09/03 10:17:00;;;;;;;6.18;4.05;;;;;;;32.62;28.21;99119.34;4921037;28;20047;-74
2021/09/03 10:19:35;;;;;;;5.63;3.75;;;;;;;32.34;27.53;99137.44;4910990;28;20039;-73
2021/09/03 10:22:03;;;;;;;5.97;3.97;;;;;;;32.09;28.82;99130.22;4911633;28;20038;-74
2021/09/03 10:24:29;;;;;;;6.22;4.03;;;;;;;34.09;26.19;99121.59;4909287;28;20039;-73
2021/09/03 10:26:56;;;;;;;5.60;4.07;;;;;;;34.10;26.60;99120.63;4907969;28;20118;-73
2021/09/03 10:29:42;;;;;;;4.97;4.07;;;;;;;32.72;26.90;99121.94;4936698;23;20397;-72
2021/09/03 10:32:14;;;;;;;7.53;4.07;;;;;;;32.41;27.74;99122.44;4931108;28;20058;-72
2021/09/03 10:34:43;;;;;;;6.55;4.05;;;;;;;31.75;28.13;99122.88;4928797;28;20046;-71
2021/09/03 10:37:14;;;;;;;5.78;3.95;;;;;;;31.80;28.01;99117.91;4928322;28;20178;-71
2021/09/03 10:39:49;;;;;;;8.20;3.65;;;;;;;30.71;30.85;99117.91;4914016;28;20475;-70
2021/09/03 10:42:34;;;;;;;5.70;4.03;;;;;;;32.44;28.90;99107.84;4916863;28;20090;-70
2021/09/03 10:45:09;;;;;;;5.82;4.40;;;;;;;31.03;29.10;99113.91;4925578;28;20030;-72
2021/09/03 10:47:40;;;;;;;4.75;3.90;;;;;;;32.81;27.55;99102.16;4902887;28;20059;-72
2021/09/03 10:50:22;;;;;;;7.88;3.90;;;;;;;32.96;27.58;99103.25;4916255;28;20028;-72
2021/09/03 10:53:03;;;;;;;6.47;4.15;;;;;;;32.19;28.47;99107.66;4919229;29;20035;-72
2021/09/03 10:56:01;;;;;;;5.18;4.03;;;;;;;32.90;27.80;99103.91;4918847;28;20035;-70
2021/09/03 10:58:48;;;;;;;7.15;4.18;;;;;;;31.41;28.85;99110.19;4918335;28;20035;-70
2021/09/03 11:01:27;;;;;;;4.63;3.97;;;;;;;33.34;26.74;99103.69;4920611;29;20027;-70
2021/09/03 11:03:56;;;;;;;6.18;5.32;;;;;;;34.37;24.86;99096.00;4927435;28;20046;-70
2021/09/03 11:06:24;;;;;;;;;;;;;;;33.92;24.70;99089.31;4928478;28;20087;-70
2021/09/03 11:08:51;;;;;;;5.63;3.85;;;;;;;34.62;25.06;99093.25;4930050;29;19944;-73
2021/09/03 11:11:39;;;;;;;9.75;3.88;;;;;;;31.43;28.06;99094.81;4934452;29;20036;-70
2021/09/03 11:14:13;;;;;;;4.13;3.83;;;;;;;33.82;27.35;99085.97;4934717;29;20408;-70
2021/09/03 11:16:46;;;;;;;4.80;3.70;;;;;;;33.87;26.02;99072.84;4935128;29;20404;-70
2021/09/03 11:19:20;;;;;;;4.32;3.83;;;;;;;31.47;28.47;99079.25;4933294;28;20094;-70
2021/09/03 11:22:10;;;;;;;5.53;4.15;;;;;;;32.26;28.80;99075.72;4934459;29;20618;-70
2021/09/03 11:24:42;;;;;;;3.35;3.05;;;;;;;33.40;25.96;99076.16;4934410;29;20157;-70
2021/09/03 11:27:17;;;;;;;5.82;3.75;;;;;;;33.42;26.70;99067.97;4917790;29;20035;-70
2021/09/03 11:29:47;;;;;;;3.83;3.40;;;;;;;34.56;24.56;99064.34;4934199;29;20027;-70
2021/09/03 11:32:20;;;;;;;5.10;3.25;;;;;;;31.44;27.78;99064.34;4934032;29;20557;-73
2021/09/03 11:34:59;;;;;;;3.75;3.40;;;;;;;30.54;30.06;99058.94;4933394;28;20035;-70
2021/09/03 11:37:45;;;;;;;3.70;3.13;;;;;;;32.81;26.82;99053.84;4934115;29;20042;-71
2021/09/03 11:40:10;;;;;;;4.00;3.25;;;;;;;33.82;24.74;99048.31;4933781;29;20063;-71
2021/09/03 11:42:39;;;;;;;4.95;3.88;;;;;;;35.61;23.93;99051.31;4933963;28;20123;-71
2021/09/03 11:45:14;;;;;;;;;;;;;;;33.32;26.48;99057.38;4934513;29;20039;-70
2021/09/03 11:48:07;;;;;;;4.28;3.80;;;;;;;30.58;29.05;99049.63;4934019;28;19960;-71
2021/09/03 11:50:35;;;;;;;8.00;3.90;;;;;;;30.69;29.31;99052.09;4931370;29;20199;-71
2021/09/03 11:53:03;;;;;;;5.20;3.45;;;;;;;32.11;27.60;99045.13;4933833;29;20035;-70
2021/09/03 11:55:37;;;;;;;4.10;3.67;;;;;;;33.37;24.62;99044.28;4933889;28;20524;-71
2021/09/03 11:58:06;;;;;;;5.57;5.07;;;;;;;34.41;24.23;99048.88;4933749;29;20039;-71
2021/09/03 12:00:37;;;;;;;6.60;4.00;;;;;;;34.44;24.28;99043.16;4933489;29;20023;-71
2021/09/03 12:03:05;;;;;;;4.97;3.40;;;;;;;32.59;27.28;99043.69;4933531;28;20455;-71
2021/09/03 12:05:31;;;;;;;5.10;3.65;;;;;;;30.49;29.00;99040.66;4933609;29;20039;-72
2021/09/03 12:08:11;;;;;;;4.95;3.63;;;;;;;28.48;32.21;99044.00;4933564;29;20031;-71
2021/09/03 12:10:55;;;;;;;4.65;3.80;;;;;;;28.12;34.20;99040.88;4933658;29;20031;-71
2021/09/03 12:13:20;;;;;;;8.05;3.67;;;;;;;27.09;33.90;99051.31;4933486;28;20506;-71
2021/09/03 12:15:47;;;;;;;7.10;3.73;;;;;;;26.39;36.46;99032.00;4933692;29;20051;-71
2021/09/03 12:18:28;;;;;;;4.53;4.07;;;;;;;26.60;35.31;99042.78;4933446;29;20302;-71
2021/09/03 12:21:10;;;;;;;3.65;3.35;;;;;;;26.88;34.87;99041.41;4933358;28;20038;-72
2021/09/03 12:23:35;;;;;;;5.00;4.30;;;;;;;27.05;34.54;99031.19;4933534;29;20460;-71
2021/09/03 12:26:07;;;;;;;4.75;4.22;;;;;;;26.32;35.30;99041.44;4948111;28;20030;-71
2021/09/03 12:28:33;;;;;;;6.03;4.30;;;;;;;26.19;37.02;99035.38;4933104;29;20460;-71
2021/09/03 12:31:06;;;;;;;5.03;4.15;;;;;;;26.10;35.93;99034.28;4933431;29;20038;-71
2021/09/03 12:33:32;;;;;;;5.57;3.78;;;;;;;26.92;35.71;99032.19;4933092;29;20059;-71
2021/09/03 12:36:05;;;;;;;4.38;3.97;;;;;;;27.29;35.17;99029.22;4933128;29;20038;-71
2021/09/03 12:38:35;;;;;;;6.68;3.97;;;;;;;26.81;34.50;99034.88;4933310;29;20023;-71
2021/09/03 12:41:19;;;;;;;5.88;4.22;;;;;;;27.18;35.68;99023.09;4933271;29;20043;-71
2021/09/03 12:43:53;;;;;;;4.20;3.50;;;;;;;26.48;34.22;99022.47;4933285;29;20457;-71
2021/09/03 12:46:19;;;;;;;6.43;3.67;;;;;;;26.66;34.36;99017.50;4932587;29;20317;-71
2021/09/03 12:49:05;;;;;;;5.28;4.60;;;;;;;26.54;34.89;99016.66;4932883;29;20042;-71
2021/09/03 12:51:33;;;;;;;5.38;3.72;;;;;;;26.23;34.34;99012.91;4932959;29;20042;-71
2021/09/03 12:53:59;;;;;;;5.63;3.58;;;;;;;26.49;35.34;99002.06;4933130;29;20090;-71
2021/09/03 12:56:24;;;;;;;4.80;3.80;;;;;;;26.52;35.35;99004.47;4933193;28;21432;-71
2021/09/03 12:58:50;;;;;;;5.68;4.88;;;;;;;26.21;34.66;99004.25;4932852;28;20620;-72
2021/09/03 13:01:15;;;;;;;4.40;3.53;;;;;;;25.83;36.06;98992.13;4932830;29;20041;-71
2021/09/03 13:03:42;;;;;;;6.15;3.70;;;;;;;25.65;37.48;98996.16;4932751;29;20031;-71
2021/09/03 13:06:08;;;;;;;7.55;4.32;;;;;;;25.64;36.78;98997.13;4933038;28;20031;-71
2021/09/03 13:08:34;;;;;;;4.18;3.72;;;;;;;25.89;34.41;98999.63;4932818;28;20106;-71
2021/09/03 13:10:59;;;;;;;7.07;4.18;;;;;;;26.14;34.43;98992.38;4933137;29;20046;-71
2021/09/03 13:13:24;;;;;;;4.45;3.85;;;;;;;26.22;35.13;98987.31;4932592;29;20032;-71
2021/09/03 13:15:50;;;;;;;4.38;3.65;;;;;;;25.73;35.89;98988.47;4932996;29;20028;-71
2021/09/03 13:18:15;;;;;;;12.90;3.75;;;;;;;25.67;34.97;98986.25;4932813;28;20082;-71
2021/09/03 13:20:40;;;;;;;7.28;4.00;;;;;;;25.71;35.49;98978.91;4931512;28;20066;-71
2021/09/03 13:23:05;;;;;;;4.55;4.13;;;;;;;25.89;35.61;98970.41;4932627;29;20710;-71
2021/09/03 13:25:31;;;;;;;5.85;3.90;;;;;;;25.81;35.07;98970.16;4932906;29;20055;-71
2021/09/03 13:27:57;;;;;;;4.20;3.80;;;;;;;25.94;34.86;98961.25;4931187;28;20042;-72
2021/09/03 13:30:23;;;;;;;6.75;3.78;;;;;;;26.00;35.48;98958.09;4932508;29;20500;-71
2021/09/03 13:32:48;;;;;;;5.93;4.05;;;;;;;26.05;35.41;98966.53;4932550;29;20042;-71
2021/09/03 13:35:18;;;;;;;6.78;4.03;;;;;;;26.16;35.01;98963.91;4931255;29;20027;-71
2021/09/03 13:37:44;;;;;;;4.80;3.88;;;;;;;26.25;35.51;98957.84;4930866;29;20028;-71
2021/09/03 13:40:11;;;;;;;7.30;3.90;;;;;;;26.44;35.02;98957.25;4932360;29;20036;-71
2021/09/03 13:42:36;;;;;;;5.75;4.25;;;;;;;26.25;36.40;98952.53;4932688;29;20038;-72
2021/09/03 13:45:02;;;;;;;4.68;3.85;;;;;;;26.43;36.25;98944.94;4931349;28;20031;-72
2021/09/03 13:47:27;;;;;;;4.90;3.80;;;;;;;25.99;34.68;98945.78;4932614;28;20031;-71
2021/09/03 13:49:53;;;;;;;4.18;3.70;;;;;;;25.93;36.80;98946.28;4932352;28;20024;-71
2021/09/03 13:52:18;;;;;;;4.43;4.03;;;;;;;25.99;35.27;98943.13;4932403;29;20065;-71
2021/09/03 13:54:43;;;;;;;8.10;3.58;;;;;;;25.99;35.90;98932.50;4932520;28;20023;-72
2021/09/03 13:57:09;;;;;;;3.72;3.42;;;;;;;25.80;36.77;98941.06;4932566;29;20401;-71
2021/09/03 13:59:34;;;;;;;5.55;3.80;;;;;;;25.64;33.99;98930.78;4923659;29;20036;-71
2021/09/03 14:02:00;;;;;;;4.43;3.80;;;;;;;25.95;34.21;98923.94;4923078;28;20035;-71
2021/09/03 14:04:25;;;;;;;4.90;3.83;;;;;;;25.54;33.29;98929.81;4922664;29;20024;-71
2021/09/03 14:06:50;;;;;;;4.28;3.30;;;;;;;25.98;34.84;98923.72;4923420;29;20994;-72
2021/09/03 14:09:16;;;;;;;3.72;3.17;;;;;;;25.67;33.72;98919.06;4912459;28;20032;-72
2021/09/03 14:11:44;;;;;;;4.45;3.42;;;;;;;25.89;32.59;98921.78;4912894;29;20027;-71
2021/09/03 14:14:10;;;;;;;4.60;3.75;;;;;;;25.98;33.36;98921.06;4906470;29;20063;-72
2021/09/03 14:16:36;;;;;;;4.82;3.70;;;;;;;26.39;33.81;98912.41;4902502;29;20035;-71
2021/09/03 14:19:01;;;;;;;4.95;3.60;;;;;;;26.60;34.30;98911.69;4904273;28;20035;-71
2021/09/03 14:21:27;;;;;;;4.53;3.60;;;;;;;26.61;33.18;98905.38;4905467;28;20036;-71
2021/09/03 14:23:52;;;;;;;4.78;3.80;;;;;;;26.35;32.85;98905.69;4902551;28;20117;-71
2021/09/03 14:26:17;;;;;;;4.80;3.88;;;;;;;26.24;32.76;98912.81;4905502;28;20034;-72
2021/09/03 14:28:43;;;;;;;4.55;3.72;;;;;;;25.52;34.33;98905.19;4910726;28;20448;-72
2021/09/03 14:31:08;;;;;;;6.10;4.00;;;;;;;25.70;34.05;98895.78;4918820;28;20114;-72
2021/09/03 14:33:33;;;;;;;4.85;4.07;;;;;;;26.29;34.56;98894.69;4918105;28;20024;-71
2021/09/03 14:36:00;;;;;;;3.97;3.38;;;;;;;26.54;34.26;98901.53;4919212;29;20031;-71
2021/09/03 14:38:26;;;;;;;4.13;3.33;;;;;;;26.12;32.89;98902.22;4924026;29;20861;-70
2021/09/03 14:40:51;;;;;;;7.38;5.95;;;;;;;26.25;33.17;98893.25;4928046;28;20032;-71
2021/09/03 14:43:17;;;;;;;8.27;3.90;;;;;;;26.23;33.81;98889.88;4930044;29;20122;-70
2021/09/03 14:45:44;;;;;;;4.03;3.63;;;;;;;26.30;32.45;98885.75;4935147;29;20062;-70
2021/09/03 14:48:10;;;;;;;4.90;3.67;;;;;;;26.32;33.67;98884.66;4934919;29;20039;-70
2021/09/03 14:50:35;;;;;;;5.13;3.60;;;;;;;25.95;32.69;98885.91;4934969;29;20031;-70
2021/09/03 14:53:00;;;;;;;3.55;3.25;;;;;;;25.95;33.05;98880.59;4934871;28;20126;-71
2021/09/03 14:55:26;;;;;;;5.63;3.58;;;;;;;26.18;33.14;98876.97;4934928;28;20050;-70
2021/09/03 14:57:52;;;;;;;4.25;3.78;;;;;;;25.64;34.29;98877.69;4934900;29;20035;-71
2021/09/03 15:00:17;;;;;;;5.88;3.90;;;;;;;25.44;34.35;98881.06;4934950;29;20094;-71
2021/09/03 15:02:43;;;;;;;5.28;3.78;;;;;;;25.57;34.80;98879.13;4934751;29;20397;-70
2021/09/03 15:05:09;;;;;;;4.40;3.75;;;;;;;25.50;34.74;98872.63;4934714;29;20031;-70
2021/09/03 15:07:35;;;;;;;5.82;3.83;;;;;;;26.10;34.27;98868.75;4934795;29;20028;-71
2021/09/03 15:10:00;;;;;;;5.53;3.60;;;;;;;26.13;32.12;98873.84;4934437;29;20113;-70
2021/09/03 15:12:26;;;;;;;3.80;3.40;;;;;;;26.25;34.34;98872.81;4934609;29;20090;-70
2021/09/03 15:14:53;;;;;;;5.03;3.35;;;;;;;26.30;32.66;98865.34;4934858;29;20119;-71
2021/09/03 15:17:18;;;;;;;4.95;3.67;;;;;;;26.26;32.63;98866.56;4934587;28;20038;-72
2021/09/03 15:19:44;;;;;;;5.78;3.97;;;;;;;25.93;33.31;98866.63;4934245;29;20027;-70
2021/09/03 15:22:10;;;;;;;3.78;3.30;;;;;;;25.72;35.09;98864.66;4934375;29;20031;-70
2021/09/03 15:24:35;;;;;;;5.57;3.63;;;;;;;25.79;34.45;98863.25;4934408;28;20042;-70
2021/09/03 15:27:01;;;;;;;3.78;3.22;;;;;;;25.71;33.09;98857.66;4933226;28;20031;-70
2021/09/03 15:29:28;;;;;;;4.65;3.85;;;;;;;25.93;33.79;98861.31;4934498;28;20122;-70
2021/09/03 15:31:54;;;;;;;3.67;3.22;;;;;;;25.91;33.02;98857.91;4934179;29;20031;-70
2021/09/03 15:34:20;;;;;;;5.32;3.20;;;;;;;25.51;32.47;98853.06;4932560;29;20035;-71
2021/09/03 15:36:45;;;;;;;4.60;3.50;;;;;;;25.60;33.02;98855.00;4935718;28;20030;-72
2021/09/03 15:39:12;;;;;;;4.00;3.60;;;;;;;25.75;33.42;98848.53;4936168;29;20031;-71
2021/09/03 15:41:37;;;;;;;4.03;3.33;;;;;;;25.98;34.10;98849.34;4934987;28;20031;-73
2021/09/03 15:44:03;;;;;;;4.40;3.72;;;;;;;25.72;33.52;98848.72;4934446;28;20042;-76
2021/09/03 15:46:28;;;;;;;7.13;3.10;;;;;;;26.03;34.03;98846.31;4934858;28;20063;-77
2021/09/03 15:48:54;;;;;;;4.05;3.40;;;;;;;25.96;34.58;98839.81;4934304;28;20019;-77
2021/09/03 15:51:19;;;;;;;5.35;3.50;;;;;;;25.78;33.78;98848.28;4933951;28;20042;-77